<?xml version="1.0" encoding="UTF-8" standalone="no" ?>
<gpx xmlns="http://www.topografix.com/GPX/1/1" xmlns:xsi="http://www.w3.org/2001/XMLSchema-instance" xsi:schemaLocation="http://www.topografix.com/GPX/1/1 http://www.topografix.com/GPX/1/1/gpx.xsd" version="1.1" creator="VisuGPX - https://www.visugpx.com">
  <metadata>
    <name>Balade</name>
    <desc><![CDATA[essai de transfer de tracé en itinéraire]]></desc>
  </metadata>
  <trk>
    <name><![CDATA[Tracé actuel: 28 MARS 2013 06:50]]></name>
    <trkseg>
      <trkpt lat="49.07492" lon="7.13538">
        <ele>242.39</ele>
        <time>2013-03-28T04:50:57Z</time>
      </trkpt>
      <trkpt lat="49.07497" lon="7.13546">
        <ele>242.87</ele>
        <time>2013-03-28T04:51:15Z</time>
      </trkpt>
      <trkpt lat="49.07516" lon="7.13532">
        <ele>239.51</ele>
        <time>2013-03-28T04:51:33Z</time>
      </trkpt>
      <trkpt lat="49.07516" lon="7.13532">
        <ele>236.62</ele>
        <time>2013-03-28T04:51:37Z</time>
      </trkpt>
      <trkpt lat="49.07515" lon="7.13532">
        <ele>233.26</ele>
        <time>2013-03-28T04:51:41Z</time>
      </trkpt>
      <trkpt lat="49.07517" lon="7.13532">
        <ele>230.37</ele>
        <time>2013-03-28T04:51:46Z</time>
      </trkpt>
      <trkpt lat="49.07519" lon="7.13533">
        <ele>228.93</ele>
        <time>2013-03-28T04:51:48Z</time>
      </trkpt>
      <trkpt lat="49.07522" lon="7.13534">
        <ele>227.01</ele>
        <time>2013-03-28T04:51:52Z</time>
      </trkpt>
      <trkpt lat="49.07532" lon="7.13541">
        <ele>223.16</ele>
        <time>2013-03-28T04:52:02Z</time>
      </trkpt>
      <trkpt lat="49.07541" lon="7.13548">
        <ele>219.8</ele>
        <time>2013-03-28T04:52:09Z</time>
      </trkpt>
      <trkpt lat="49.07564" lon="7.13561">
        <ele>216.91</ele>
        <time>2013-03-28T04:52:27Z</time>
      </trkpt>
      <trkpt lat="49.07588" lon="7.13578">
        <ele>214.99</ele>
        <time>2013-03-28T04:52:52Z</time>
      </trkpt>
      <trkpt lat="49.07617" lon="7.13595">
        <ele>214.51</ele>
        <time>2013-03-28T04:53:18Z</time>
      </trkpt>
      <trkpt lat="49.07643" lon="7.13611">
        <ele>213.55</ele>
        <time>2013-03-28T04:53:47Z</time>
      </trkpt>
      <trkpt lat="49.07677" lon="7.13622">
        <ele>212.59</ele>
        <time>2013-03-28T04:54:14Z</time>
      </trkpt>
      <trkpt lat="49.07716" lon="7.13629">
        <ele>211.15</ele>
        <time>2013-03-28T04:54:41Z</time>
      </trkpt>
      <trkpt lat="49.07715" lon="7.13625">
        <ele>210.67</ele>
        <time>2013-03-28T04:54:58Z</time>
      </trkpt>
      <trkpt lat="49.0772" lon="7.13626">
        <ele>210.67</ele>
        <time>2013-03-28T04:55:02Z</time>
      </trkpt>
      <trkpt lat="49.07753" lon="7.1361">
        <ele>211.15</ele>
        <time>2013-03-28T04:55:29Z</time>
      </trkpt>
      <trkpt lat="49.07783" lon="7.1359">
        <ele>211.15</ele>
        <time>2013-03-28T04:55:58Z</time>
      </trkpt>
      <trkpt lat="49.07784" lon="7.13588">
        <ele>211.15</ele>
        <time>2013-03-28T04:56:11Z</time>
      </trkpt>
      <trkpt lat="49.07788" lon="7.13587">
        <ele>210.67</ele>
        <time>2013-03-28T04:56:15Z</time>
      </trkpt>
      <trkpt lat="49.07819" lon="7.13573">
        <ele>211.15</ele>
        <time>2013-03-28T04:56:41Z</time>
      </trkpt>
      <trkpt lat="49.07842" lon="7.13563">
        <ele>210.19</ele>
        <time>2013-03-28T04:57:08Z</time>
      </trkpt>
      <trkpt lat="49.07874" lon="7.13553">
        <ele>209.7</ele>
        <time>2013-03-28T04:57:38Z</time>
      </trkpt>
      <trkpt lat="49.07901" lon="7.13546">
        <ele>209.22</ele>
        <time>2013-03-28T04:58:09Z</time>
      </trkpt>
      <trkpt lat="49.07904" lon="7.13546">
        <ele>209.22</ele>
        <time>2013-03-28T04:58:12Z</time>
      </trkpt>
      <trkpt lat="49.07923" lon="7.13533">
        <ele>209.22</ele>
        <time>2013-03-28T04:58:36Z</time>
      </trkpt>
      <trkpt lat="49.07925" lon="7.13524">
        <ele>209.7</ele>
        <time>2013-03-28T04:58:41Z</time>
      </trkpt>
      <trkpt lat="49.07926" lon="7.13479">
        <ele>210.19</ele>
        <time>2013-03-28T04:59:03Z</time>
      </trkpt>
      <trkpt lat="49.0793" lon="7.13453">
        <ele>211.63</ele>
        <time>2013-03-28T04:59:24Z</time>
      </trkpt>
      <trkpt lat="49.07931" lon="7.13452">
        <ele>211.15</ele>
        <time>2013-03-28T04:59:25Z</time>
      </trkpt>
      <trkpt lat="49.07957" lon="7.13431">
        <ele>214.03</ele>
        <time>2013-03-28T04:59:52Z</time>
      </trkpt>
      <trkpt lat="49.0797" lon="7.13408">
        <ele>215.47</ele>
        <time>2013-03-28T05:00:15Z</time>
      </trkpt>
      <trkpt lat="49.07978" lon="7.13394">
        <ele>216.91</ele>
        <time>2013-03-28T05:00:24Z</time>
      </trkpt>
      <trkpt lat="49.07984" lon="7.13364">
        <ele>218.84</ele>
        <time>2013-03-28T05:00:40Z</time>
      </trkpt>
      <trkpt lat="49.07991" lon="7.13359">
        <ele>219.32</ele>
        <time>2013-03-28T05:00:47Z</time>
      </trkpt>
      <trkpt lat="49.08016" lon="7.1333">
        <ele>220.76</ele>
        <time>2013-03-28T05:01:12Z</time>
      </trkpt>
      <trkpt lat="49.08057" lon="7.13309">
        <ele>220.28</ele>
        <time>2013-03-28T05:01:43Z</time>
      </trkpt>
      <trkpt lat="49.08093" lon="7.13294">
        <ele>221.72</ele>
        <time>2013-03-28T05:02:12Z</time>
      </trkpt>
      <trkpt lat="49.08127" lon="7.13277">
        <ele>222.2</ele>
        <time>2013-03-28T05:02:40Z</time>
      </trkpt>
      <trkpt lat="49.08137" lon="7.1327">
        <ele>222.2</ele>
        <time>2013-03-28T05:02:59Z</time>
      </trkpt>
      <trkpt lat="49.08176" lon="7.13254">
        <ele>220.76</ele>
        <time>2013-03-28T05:03:30Z</time>
      </trkpt>
      <trkpt lat="49.08211" lon="7.13236">
        <ele>220.28</ele>
        <time>2013-03-28T05:03:59Z</time>
      </trkpt>
      <trkpt lat="49.08233" lon="7.13222">
        <ele>220.76</ele>
        <time>2013-03-28T05:04:23Z</time>
      </trkpt>
      <trkpt lat="49.08265" lon="7.13209">
        <ele>221.72</ele>
        <time>2013-03-28T05:04:51Z</time>
      </trkpt>
      <trkpt lat="49.08303" lon="7.1319">
        <ele>221.24</ele>
        <time>2013-03-28T05:05:21Z</time>
      </trkpt>
      <trkpt lat="49.0834" lon="7.13174">
        <ele>222.2</ele>
        <time>2013-03-28T05:05:52Z</time>
      </trkpt>
      <trkpt lat="49.08361" lon="7.13165">
        <ele>222.2</ele>
        <time>2013-03-28T05:06:13Z</time>
      </trkpt>
      <trkpt lat="49.08401" lon="7.13137">
        <ele>222.68</ele>
        <time>2013-03-28T05:06:39Z</time>
      </trkpt>
      <trkpt lat="49.08437" lon="7.13107">
        <ele>224.12</ele>
        <time>2013-03-28T05:07:06Z</time>
      </trkpt>
      <trkpt lat="49.08473" lon="7.13065">
        <ele>226.53</ele>
        <time>2013-03-28T05:07:38Z</time>
      </trkpt>
      <trkpt lat="49.08497" lon="7.13029">
        <ele>228.93</ele>
        <time>2013-03-28T05:08:03Z</time>
      </trkpt>
      <trkpt lat="49.08511" lon="7.13005">
        <ele>229.41</ele>
        <time>2013-03-28T05:08:27Z</time>
      </trkpt>
      <trkpt lat="49.08514" lon="7.1297">
        <ele>230.85</ele>
        <time>2013-03-28T05:08:49Z</time>
      </trkpt>
      <trkpt lat="49.08483" lon="7.12947">
        <ele>233.74</ele>
        <time>2013-03-28T05:09:16Z</time>
      </trkpt>
      <trkpt lat="49.08446" lon="7.12926">
        <ele>236.62</ele>
        <time>2013-03-28T05:09:47Z</time>
      </trkpt>
      <trkpt lat="49.0841" lon="7.12905">
        <ele>238.06</ele>
        <time>2013-03-28T05:10:16Z</time>
      </trkpt>
      <trkpt lat="49.08373" lon="7.12881">
        <ele>239.99</ele>
        <time>2013-03-28T05:10:46Z</time>
      </trkpt>
      <trkpt lat="49.08369" lon="7.12879">
        <ele>239.99</ele>
        <time>2013-03-28T05:10:56Z</time>
      </trkpt>
      <trkpt lat="49.08364" lon="7.12877">
        <ele>240.47</ele>
        <time>2013-03-28T05:11:00Z</time>
      </trkpt>
      <trkpt lat="49.08356" lon="7.12872">
        <ele>240.47</ele>
        <time>2013-03-28T05:11:07Z</time>
      </trkpt>
      <trkpt lat="49.08335" lon="7.12859">
        <ele>240.95</ele>
        <time>2013-03-28T05:11:27Z</time>
      </trkpt>
      <trkpt lat="49.08304" lon="7.12843">
        <ele>242.39</ele>
        <time>2013-03-28T05:11:51Z</time>
      </trkpt>
      <trkpt lat="49.08263" lon="7.12829">
        <ele>243.83</ele>
        <time>2013-03-28T05:12:20Z</time>
      </trkpt>
      <trkpt lat="49.08224" lon="7.12814">
        <ele>244.79</ele>
        <time>2013-03-28T05:12:48Z</time>
      </trkpt>
      <trkpt lat="49.08208" lon="7.12817">
        <ele>246.23</ele>
        <time>2013-03-28T05:13:10Z</time>
      </trkpt>
      <trkpt lat="49.08199" lon="7.12845">
        <ele>245.27</ele>
        <time>2013-03-28T05:13:31Z</time>
      </trkpt>
      <trkpt lat="49.08181" lon="7.12907">
        <ele>242.87</ele>
        <time>2013-03-28T05:14:00Z</time>
      </trkpt>
      <trkpt lat="49.08161" lon="7.12964">
        <ele>242.39</ele>
        <time>2013-03-28T05:14:27Z</time>
      </trkpt>
      <trkpt lat="49.08133" lon="7.13008">
        <ele>241.91</ele>
        <time>2013-03-28T05:14:52Z</time>
      </trkpt>
      <trkpt lat="49.08106" lon="7.13052">
        <ele>242.39</ele>
        <time>2013-03-28T05:15:20Z</time>
      </trkpt>
      <trkpt lat="49.08076" lon="7.13074">
        <ele>242.39</ele>
        <time>2013-03-28T05:15:45Z</time>
      </trkpt>
      <trkpt lat="49.08042" lon="7.13083">
        <ele>244.79</ele>
        <time>2013-03-28T05:16:10Z</time>
      </trkpt>
      <trkpt lat="49.08004" lon="7.13106">
        <ele>245.27</ele>
        <time>2013-03-28T05:16:39Z</time>
      </trkpt>
      <trkpt lat="49.07969" lon="7.13138">
        <ele>243.35</ele>
        <time>2013-03-28T05:17:07Z</time>
      </trkpt>
      <trkpt lat="49.07931" lon="7.13163">
        <ele>240.95</ele>
        <time>2013-03-28T05:17:37Z</time>
      </trkpt>
      <trkpt lat="49.07911" lon="7.1318">
        <ele>239.51</ele>
        <time>2013-03-28T05:17:53Z</time>
      </trkpt>
      <trkpt lat="49.07875" lon="7.13186">
        <ele>238.06</ele>
        <time>2013-03-28T05:18:19Z</time>
      </trkpt>
      <trkpt lat="49.07852" lon="7.13157">
        <ele>239.99</ele>
        <time>2013-03-28T05:18:40Z</time>
      </trkpt>
      <trkpt lat="49.07827" lon="7.1316">
        <ele>240.47</ele>
        <time>2013-03-28T05:19:00Z</time>
      </trkpt>
      <trkpt lat="49.07789" lon="7.13175">
        <ele>241.43</ele>
        <time>2013-03-28T05:19:28Z</time>
      </trkpt>
      <trkpt lat="49.07752" lon="7.13194">
        <ele>240.95</ele>
        <time>2013-03-28T05:19:57Z</time>
      </trkpt>
      <trkpt lat="49.07717" lon="7.13207">
        <ele>240.47</ele>
        <time>2013-03-28T05:20:25Z</time>
      </trkpt>
      <trkpt lat="49.077" lon="7.13211">
        <ele>239.99</ele>
        <time>2013-03-28T05:20:44Z</time>
      </trkpt>
      <trkpt lat="49.07668" lon="7.13219">
        <ele>239.02</ele>
        <time>2013-03-28T05:21:08Z</time>
      </trkpt>
      <trkpt lat="49.07645" lon="7.13245">
        <ele>237.1</ele>
        <time>2013-03-28T05:21:36Z</time>
      </trkpt>
      <trkpt lat="49.07647" lon="7.13282">
        <ele>236.14</ele>
        <time>2013-03-28T05:22:02Z</time>
      </trkpt>
      <trkpt lat="49.07645" lon="7.13322">
        <ele>233.74</ele>
        <time>2013-03-28T05:22:23Z</time>
      </trkpt>
      <trkpt lat="49.0765" lon="7.13376">
        <ele>230.37</ele>
        <time>2013-03-28T05:22:49Z</time>
      </trkpt>
      <trkpt lat="49.07649" lon="7.13426">
        <ele>227.49</ele>
        <time>2013-03-28T05:23:12Z</time>
      </trkpt>
      <trkpt lat="49.07619" lon="7.1346">
        <ele>226.05</ele>
        <time>2013-03-28T05:23:38Z</time>
      </trkpt>
      <trkpt lat="49.07579" lon="7.13469">
        <ele>223.16</ele>
        <time>2013-03-28T05:24:05Z</time>
      </trkpt>
      <trkpt lat="49.07576" lon="7.13503">
        <ele>223.16</ele>
        <time>2013-03-28T05:24:26Z</time>
      </trkpt>
      <trkpt lat="49.0759" lon="7.1352">
        <ele>222.2</ele>
        <time>2013-03-28T05:24:45Z</time>
      </trkpt>
      <trkpt lat="49.07597" lon="7.13524">
        <ele>222.2</ele>
        <time>2013-03-28T05:24:50Z</time>
      </trkpt>
      <trkpt lat="49.07632" lon="7.13522">
        <ele>219.8</ele>
        <time>2013-03-28T05:25:18Z</time>
      </trkpt>
      <trkpt lat="49.07659" lon="7.13535">
        <ele>216.91</ele>
        <time>2013-03-28T05:25:42Z</time>
      </trkpt>
      <trkpt lat="49.07662" lon="7.1358">
        <ele>213.55</ele>
        <time>2013-03-28T05:26:05Z</time>
      </trkpt>
      <trkpt lat="49.07664" lon="7.13608">
        <ele>211.63</ele>
        <time>2013-03-28T05:26:20Z</time>
      </trkpt>
      <trkpt lat="49.07657" lon="7.13612">
        <ele>212.11</ele>
        <time>2013-03-28T05:26:25Z</time>
      </trkpt>
      <trkpt lat="49.07621" lon="7.13599">
        <ele>213.07</ele>
        <time>2013-03-28T05:26:52Z</time>
      </trkpt>
      <trkpt lat="49.0759" lon="7.1358">
        <ele>213.55</ele>
        <time>2013-03-28T05:27:17Z</time>
      </trkpt>
      <trkpt lat="49.07567" lon="7.13568">
        <ele>214.03</ele>
        <time>2013-03-28T05:27:39Z</time>
      </trkpt>
      <trkpt lat="49.07529" lon="7.13543">
        <ele>216.91</ele>
        <time>2013-03-28T05:28:09Z</time>
      </trkpt>
      <trkpt lat="49.07502" lon="7.13542">
        <ele>218.84</ele>
        <time>2013-03-28T05:28:32Z</time>
      </trkpt>
      <trkpt lat="49.07492" lon="7.13551">
        <ele>219.32</ele>
        <time>2013-03-28T05:28:55Z</time>
      </trkpt>
      <trkpt lat="49.07492" lon="7.1355">
        <ele>219.32</ele>
        <time>2013-03-28T05:29:00Z</time>
      </trkpt>
    </trkseg>
  </trk>
</gpx>